Santa Lucia — A8IP5 — position and weather

sailwx.info

Track history (hours):
 
Tides and Currents Weather Stations Pressure Air Temp Water Temp Dewpoint Dewpoint Depression Visibility Wind Speed Wind Dir Waves Ship Positions

Santa Lucia

Last reported at 2015-Jul-02 19:20 UTC. Time now 2015-Jul-05 07:45 UTC.
Position N 35°21' W 074°41'.

Length 143 m; beam 22 m.

Type: Ship. MMSI: 636091017.

Date/timePositionNaut miles runAvg speedWind from/ knotsBaromVisibWave heightAir tempDewpointWater temp
2015-Jul-02 19:20N 35°21' W 074°41'16518.9
2015-Jul-02 10:33N 38°07' W 074°43'1919.2
2015-Jul-02 09:34N 38°26' W 074°43'1919.4
2015-Jul-02 08:34N 38°42' W 074°57'1616.2
2015-Jul-02 07:33N 38°57' W 075°06'1919.1
2015-Jul-02 06:33N 39°14' W 075°18'1919.1
2015-Jul-02 05:34N 39°28' W 075°34'1414.3
2015-Jul-02 04:33N 39°42' W 075°31'9 9.5
2015-Jul-02 03:34N 39°49' W 075°23'9 9.1
2015-Jul-02 02:33N 39°53' W 075°12'4 3.5
2015-Jul-02 01:33N 39°55' W 075°08'0 0.0
2015-Jul-02 00:31N 39°55' W 075°08'0 0.0
2015-Jul-01 23:33N 39°55' W 075°08'0 0.0
2015-Jul-01 22:32N 39°55' W 075°08'0 0.0
2015-Jul-01 21:32N 39°55' W 075°08'0 0.0
2015-Jul-01 20:27N 39°55' W 075°08'0 0.0
2015-Jul-01 19:32N 39°55' W 075°08'0 0.0
2015-Jul-01 18:30N 39°55' W 075°08'0 0.0
2015-Jul-01 17:33N 39°55' W 075°08'0 0.0
2015-Jul-01 16:29N 39°55' W 075°08'0 0.0
2015-Jul-01 15:31N 39°55' W 075°08'0 0.0
2015-Jul-01 14:27N 39°55' W 075°08'0 0.0
2015-Jul-01 13:32N 39°55' W 075°08'0 0.0
2015-Jul-01 12:32N 39°55' W 075°08'0 0.0
2015-Jul-01 11:31N 39°55' W 075°08'0 0.0
2015-Jul-01 10:32N 39°55' W 075°08'0 0.0
2015-Jul-01 09:32N 39°55' W 075°08'0 0.0
2015-Jul-01 08:33N 39°55' W 075°08'0 0.0
2015-Jul-01 07:30N 39°55' W 075°08'0 0.0
2015-Jul-01 06:33N 39°55' W 075°08'0 0.0
2015-Jul-01 05:31N 39°55' W 075°08'0 0.0
2015-Jul-01 04:33N 39°55' W 075°08'0 0.0
2015-Jul-01 03:33N 39°55' W 075°08'0 0.0
2015-Jul-01 02:33N 39°55' W 075°08'0 0.0
2015-Jul-01 01:28N 39°55' W 075°08'0 0.0
2015-Jul-01 00:33N 39°55' W 075°08'0 0.0
2015-Jun-30 23:28N 39°55' W 075°08'0 0.0
2015-Jun-30 22:26N 39°55' W 075°08'0 0.0
2015-Jun-30 21:31N 39°55' W 075°08'0 0.0
2015-Jun-30 20:33N 39°55' W 075°08'0 0.0
2015-Jun-30 19:30N 39°55' W 075°08'0 0.0
2015-Jun-30 18:32N 39°55' W 075°08'0 0.0
2015-Jun-30 17:31N 39°55' W 075°08'0 0.0
2015-Jun-30 16:33N 39°55' W 075°08'0 0.0
2015-Jun-30 15:27N 39°55' W 075°08'1 0.8
2015-Jun-30 14:33N 39°54' W 075°08'10 9.6
2015-Jun-30 13:33N 39°51' W 075°20'1212.3
2015-Jun-30 12:33N 39°42' W 075°31'1515.3
2015-Jun-30 11:33N 39°27' W 075°33'1717.5
2015-Jun-30 10:34N 39°14' W 075°18'1817.7
2015-Jun-30 09:33N 38°58' W 075°07'1514.7
2015-Jun-30 08:34N 38°45' W 074°59'1817.6
2015-Jun-30 07:34N 38°32' W 074°44'1818.0
2015-Jun-30 06:34N 38°14' W 074°40'1918.6
2015-Jun-30 05:33N 37°56' W 074°40'  
Track history (hours):
 
Tides and Currents Weather Stations Pressure Air Temp Water Temp Dewpoint Dewpoint Depression Visibility Wind Speed Wind Dir Waves Ship Positions

Santa Lucia

Last reported at 2015-Jul-02 19:20 UTC. Time now 2015-Jul-05 07:45 UTC.
Position N 35°21' W 074°41'.

Length 143 m; beam 22 m.

Type: Ship. MMSI: 636091017.

Date/timePositionNaut miles runAvg speedWind from/ knotsBaromVisibWave heightAir tempDewpointWater temp
2015-Jul-02 19:20N 35°21' W 074°41'16518.9
2015-Jul-02 10:33N 38°07' W 074°43'1919.2
2015-Jul-02 09:34N 38°26' W 074°43'1919.4
2015-Jul-02 08:34N 38°42' W 074°57'1616.2
2015-Jul-02 07:33N 38°57' W 075°06'1919.1
2015-Jul-02 06:33N 39°14' W 075°18'1919.1
2015-Jul-02 05:34N 39°28' W 075°34'1414.3
2015-Jul-02 04:33N 39°42' W 075°31'9 9.5
2015-Jul-02 03:34N 39°49' W 075°23'9 9.1
2015-Jul-02 02:33N 39°53' W 075°12'4 3.5
2015-Jul-02 01:33N 39°55' W 075°08'0 0.0
2015-Jul-02 00:31N 39°55' W 075°08'0 0.0
2015-Jul-01 23:33N 39°55' W 075°08'0 0.0
2015-Jul-01 22:32N 39°55' W 075°08'0 0.0
2015-Jul-01 21:32N 39°55' W 075°08'0 0.0
2015-Jul-01 20:27N 39°55' W 075°08'0 0.0
2015-Jul-01 19:32N 39°55' W 075°08'0 0.0
2015-Jul-01 18:30N 39°55' W 075°08'0 0.0
2015-Jul-01 17:33N 39°55' W 075°08'0 0.0
2015-Jul-01 16:29N 39°55' W 075°08'0 0.0
2015-Jul-01 15:31N 39°55' W 075°08'0 0.0
2015-Jul-01 14:27N 39°55' W 075°08'0 0.0
2015-Jul-01 13:32N 39°55' W 075°08'0 0.0
2015-Jul-01 12:32N 39°55' W 075°08'0 0.0
2015-Jul-01 11:31N 39°55' W 075°08'0 0.0
2015-Jul-01 10:32N 39°55' W 075°08'0 0.0
2015-Jul-01 09:32N 39°55' W 075°08'0 0.0
2015-Jul-01 08:33N 39°55' W 075°08'0 0.0
2015-Jul-01 07:30N 39°55' W 075°08'0 0.0
2015-Jul-01 06:33N 39°55' W 075°08'0 0.0
2015-Jul-01 05:31N 39°55' W 075°08'0 0.0
2015-Jul-01 04:33N 39°55' W 075°08'0 0.0
2015-Jul-01 03:33N 39°55' W 075°08'0 0.0
2015-Jul-01 02:33N 39°55' W 075°08'0 0.0
2015-Jul-01 01:28N 39°55' W 075°08'0 0.0
2015-Jul-01 00:33N 39°55' W 075°08'0 0.0
2015-Jun-30 23:28N 39°55' W 075°08'0 0.0
2015-Jun-30 22:26N 39°55' W 075°08'0 0.0
2015-Jun-30 21:31N 39°55' W 075°08'0 0.0
2015-Jun-30 20:33N 39°55' W 075°08'0 0.0
2015-Jun-30 19:30N 39°55' W 075°08'0 0.0
2015-Jun-30 18:32N 39°55' W 075°08'0 0.0
2015-Jun-30 17:31N 39°55' W 075°08'0 0.0
2015-Jun-30 16:33N 39°55' W 075°08'0 0.0
2015-Jun-30 15:27N 39°55' W 075°08'1 0.8
2015-Jun-30 14:33N 39°54' W 075°08'10 9.6
2015-Jun-30 13:33N 39°51' W 075°20'1212.3
2015-Jun-30 12:33N 39°42' W 075°31'1515.3
2015-Jun-30 11:33N 39°27' W 075°33'1717.5
2015-Jun-30 10:34N 39°14' W 075°18'1817.7
2015-Jun-30 09:33N 38°58' W 075°07'1514.7
2015-Jun-30 08:34N 38°45' W 074°59'1817.6
2015-Jun-30 07:34N 38°32' W 074°44'1818.0
2015-Jun-30 06:34N 38°14' W 074°40'1918.6
2015-Jun-30 05:33N 37°56' W 074°40'  

Dump ship's entire track history